Airfield :
LOGIN :

Register | Disclaimer

   EN    FR    IT 

 










Legend :    VFR   Marginal VFR   IFR   Intensive IFR   Very Intensive IFR
Visi :
Ceiling :
>= 8 km
>= 3000ft
5 to 8 km
1000 to 3000 ft
1500m to 5 km
500 to 1000 ft
800 to 1500m
200 to 500 ft
< 800m
< 200 ft
Symbols :   Thunderstorms  Fog  Heavy snow  Heavy precipitations  Wind > 20 kt
SIGMETs :     Misc.  Thunderstorms  Icing  Turbulence  Mountain Waves  Volcanic Ashes






- Airport Elevation : 768 ft
- IATA code : MXP


LIMC - Milano Malpensa

CURRENT METAR :
  • 280050Z 01007KT CAVOK 19/16 Q1011 NOSIG

EXPIRED METARs :
  • 280020Z 01006KT CAVOK 20/17 Q1011 NOSIG
  • 272350Z 35006KT CAVOK 20/17 Q1012 NOSIG
  • 272320Z 35007KT CAVOK 20/17 Q1012 NOSIG
  • 272250Z 36006KT CAVOK 21/17 Q1012 NOSIG

TAF TAF LIMC
Valid from the 28 at 00:00 until the 29 at 06:00 UTC


272300Z 2800/2906 VRB05KT CAVOK
BECMG 2812/2814 12015KT
TEMPO 2813/2818 12015G25KT
TEMPO 2814/2906 4000 TSRA BKN014



MET'MAP, your aeronautical weather chart ! - Copyright ORBIFLY December 2007 - Disclaimer

ORBIFLY MET'MAP TEAM :

Programming & Development : Alexandra Zaïnal
Original concept : Baudouin d'Aumeries
Technical & hardware support : Manuel Goepfert
Assistance : Marc-Olivier Méhu

Contact : metmap@orbifly.com




SOURCES & CREDITS :

   NOAA